Airfield :
LOGIN :

Register | Disclaimer

   EN    FR    IT 

 










Legend :    VFR   Marginal VFR   IFR   Intensive IFR   Very Intensive IFR
Visi :
Ceiling :
>= 8 km
>= 3000ft
5 to 8 km
1000 to 3000 ft
1500m to 5 km
500 to 1000 ft
800 to 1500m
200 to 500 ft
< 800m
< 200 ft
Symbols :   Thunderstorms  Fog  Heavy snow  Heavy precipitations  Wind > 20 kt
SIGMETs :     Misc.  Thunderstorms  Icing  Turbulence  Mountain Waves  Volcanic Ashes






- Airport Elevation : 160 ft
- IATA code : FMO


EDDG - Münster Osnabrück Int.

CURRENT METAR :
  • 170120Z AUTO VRB02KT 9999 FEW046 14/13 Q1009 NOSIG

EXPIRED METARs :
  • 170050Z AUTO 16003KT 130V220 CAVOK 14/13 Q1009 NOSIG
  • 170020Z AUTO 15004KT CAVOK 14/13 Q1009 NOSIG
  • 162350Z AUTO 15003KT CAVOK 13/13 Q1009 NOSIG
  • 162320Z AUTO 14004KT CAVOK 13/13 Q1009 NOSIG
  • 162250Z AUTO 14004KT CAVOK 13/13 Q1009 TEMPO 4000 BCFG
  • 162220Z AUTO 13003KT 090V160 CAVOK 13/13 Q1009 TEMPO 4000 BCFG
  • 162150Z AUTO 15003KT CAVOK 14/13 Q1009 TEMPO 4000 BR
  • 162120Z AUTO 17003KT 150V210 CAVOK 13/13 Q1008 TEMPO 4000
  • 162050Z AUTO VRB02KT CAVOK 14/13 Q1008 NOSIG

TAF TAF EDDG
Valid from the 17 at 00:00 until the 18 at 00:00 UTC


162300Z 1700/1724 15003KT 9999 SCT040
PROB30
TEMPO 1700/1706 2000 BCFG
BECMG 1706/1709 23007KT
PROB30
TEMPO 1706/1709 BKN010
TEMPO 1709/1716 SHRA BKN030CB
PROB30
TEMPO 1712/1715 TSRA
BECMG 1716/1718 VRB03KT
TEMPO 1722/1724 4000 BCFG



MET'MAP, your aeronautical weather chart ! - Copyright ORBIFLY December 2007 - Disclaimer

ORBIFLY MET'MAP TEAM :

Programming & Development : Alexandra Zaïnal
Original concept : Baudouin d'Aumeries
Technical & hardware support : Manuel Goepfert
Assistance : Marc-Olivier Méhu




SOURCES & CREDITS :

   NOAA